Rhonda Lamulle — WDC8441 — position and weather

sailwx.info

Track history (hours):
 
Tides and Currents Weather Stations Pressure Air Temp Water Temp Dewpoint Dewpoint Depression Visibility Wind Speed Wind Dir Waves Ship Positions

Rhonda Lamulle

Owner: Florida Marine Transporters, Inc., Mandeville, LA. More information available from US FCC via Universal Licensing System and Coast Guard Vessel Documentation Center.

Last reported at 2015-Jul-28 23:33 UTC. Time now 2015-Jul-30 14:11 UTC.
Position N 30°24' W 086°51'.

Length 13 m; draft 3 m.

Type: Towing. MMSI: 367087104.

Date/timePositionNaut miles runAvg speedWind from/ knotsBaromVisibWave heightAir tempDewpointWater temp
2015-Jul-28 23:33N 30°24' W 086°51'6 6.0
2015-Jul-28 22:33N 30°24' W 086°44'2 0.1
2015-Jul-28 09:33N 30°24' W 086°42'0 0.0
2015-Jul-28 08:32N 30°24' W 086°42'4 0.3
2015-Jul-27 20:32N 30°24' W 086°38'5 5.1
2015-Jul-27 19:33N 30°25' W 086°32'5 5.0
2015-Jul-27 18:33N 30°29' W 086°29'1 0.7
2015-Jul-27 17:33N 30°29' W 086°29'0 0.0
2015-Jul-27 16:33N 30°29' W 086°29'0 0.0
2015-Jul-27 15:33N 30°29' W 086°29'0 0.0
2015-Jul-27 14:33N 30°29' W 086°29'0 0.0
2015-Jul-27 13:33N 30°29' W 086°29'0 0.0
2015-Jul-27 12:33N 30°29' W 086°29'0 0.0
2015-Jul-27 11:33N 30°29' W 086°29'0 0.0
2015-Jul-27 10:33N 30°29' W 086°29'0 0.0
2015-Jul-27 09:33N 30°29' W 086°29'0 0.0
2015-Jul-27 08:33N 30°29' W 086°29'0 0.0
2015-Jul-27 07:33N 30°29' W 086°29'0 0.0
2015-Jul-27 06:33N 30°29' W 086°29'0 0.0
2015-Jul-27 05:33N 30°29' W 086°29'0 0.0
2015-Jul-27 04:33N 30°29' W 086°29'0 0.0
2015-Jul-27 03:33N 30°29' W 086°29'0 0.0
2015-Jul-27 02:33N 30°29' W 086°29'0 0.0
2015-Jul-27 01:33N 30°29' W 086°29'0 0.0
2015-Jul-27 00:33N 30°29' W 086°29'0 0.0
2015-Jul-26 23:33N 30°29' W 086°29'0 0.0
2015-Jul-26 22:33N 30°29' W 086°29'0 0.0
2015-Jul-26 21:33N 30°29' W 086°29'0 0.0
2015-Jul-26 20:33N 30°29' W 086°29'0 0.0
2015-Jul-26 19:33N 30°29' W 086°29'0 0.0
2015-Jul-26 18:33N 30°29' W 086°29'0 0.0
2015-Jul-26 17:33N 30°29' W 086°29'0 0.0
2015-Jul-26 16:34N 30°29' W 086°29'0 0.0
2015-Jul-26 15:33N 30°29' W 086°29'0 0.0
2015-Jul-26 14:34N 30°29' W 086°29'0 0.0
2015-Jul-26 13:33N 30°29' W 086°29'0 0.0
2015-Jul-26 12:34N 30°29' W 086°29'0 0.0
2015-Jul-26 11:33N 30°29' W 086°29'0 0.0
2015-Jul-26 10:34N 30°29' W 086°29'0 0.0
2015-Jul-26 09:33N 30°29' W 086°29'0 0.0
2015-Jul-26 08:34N 30°29' W 086°29'0 0.0
2015-Jul-26 07:34N 30°29' W 086°29'0 0.0
2015-Jul-26 06:34N 30°29' W 086°29'0 0.0
2015-Jul-26 05:34N 30°29' W 086°29'0 0.0
2015-Jul-26 04:33N 30°29' W 086°29'0 0.0
2015-Jul-26 03:33N 30°29' W 086°29'0 0.0
2015-Jul-26 02:34N 30°29' W 086°29'0 0.0
2015-Jul-26 01:34N 30°29' W 086°29'0 0.0
2015-Jul-26 00:34N 30°29' W 086°29'0 0.0
2015-Jul-25 23:33N 30°29' W 086°29'0 0.0
2015-Jul-25 22:33N 30°29' W 086°29'0 0.0
2015-Jul-25 21:34N 30°29' W 086°29'0 0.0
2015-Jul-25 20:34N 30°29' W 086°29'0 0.0
2015-Jul-25 19:34N 30°29' W 086°29'0 0.0
2015-Jul-25 18:34N 30°29' W 086°29'0 0.0
2015-Jul-25 17:34N 30°29' W 086°29'0 0.0
2015-Jul-25 16:33N 30°29' W 086°29'0 0.0
2015-Jul-25 15:33N 30°29' W 086°29'0 0.0
2015-Jul-25 14:34N 30°29' W 086°29'0 0.0
2015-Jul-25 13:33N 30°29' W 086°29'0 0.0
2015-Jul-25 12:34N 30°29' W 086°29'0 0.0
2015-Jul-25 11:33N 30°29' W 086°29'0 0.0
2015-Jul-25 10:33N 30°29' W 086°29'0 0.0
2015-Jul-25 09:34N 30°29' W 086°29'0 0.0
2015-Jul-25 08:33N 30°29' W 086°29'0 0.2
2015-Jul-25 07:34N 30°29' W 086°29'3 3.1
2015-Jul-25 06:34N 30°27' W 086°27'6 6.1
2015-Jul-25 05:34N 30°26' W 086°20'6 5.9
2015-Jul-25 04:33N 30°25' W 086°13'1 0.0
2015-Jul-23 12:33N 30°26' W 086°14'6 6.1
2015-Jul-23 11:34N 30°26' W 086°21'6 6.4
2015-Jul-23 10:34N 30°26' W 086°28'6 6.2
2015-Jul-23 09:34N 30°24' W 086°35'8 5.0
2015-Jul-23 08:03N 30°24' W 086°44'3 5.9
2015-Jul-23 07:33N 30°24' W 086°47'6 5.9
2015-Jul-23 06:33N 30°24' W 086°54'  
Track history (hours):
 
Tides and Currents Weather Stations Pressure Air Temp Water Temp Dewpoint Dewpoint Depression Visibility Wind Speed Wind Dir Waves Ship Positions

Rhonda Lamulle

Owner: Florida Marine Transporters, Inc., Mandeville, LA. More information available from US FCC via Universal Licensing System and Coast Guard Vessel Documentation Center.

Last reported at 2015-Jul-28 23:33 UTC. Time now 2015-Jul-30 14:11 UTC.
Position N 30°24' W 086°51'.

Length 13 m; draft 3 m.

Type: Towing. MMSI: 367087104.

Date/timePositionNaut miles runAvg speedWind from/ knotsBaromVisibWave heightAir tempDewpointWater temp
2015-Jul-28 23:33N 30°24' W 086°51'6 6.0
2015-Jul-28 22:33N 30°24' W 086°44'2 0.1
2015-Jul-28 09:33N 30°24' W 086°42'0 0.0
2015-Jul-28 08:32N 30°24' W 086°42'4 0.3
2015-Jul-27 20:32N 30°24' W 086°38'5 5.1
2015-Jul-27 19:33N 30°25' W 086°32'5 5.0
2015-Jul-27 18:33N 30°29' W 086°29'1 0.7
2015-Jul-27 17:33N 30°29' W 086°29'0 0.0
2015-Jul-27 16:33N 30°29' W 086°29'0 0.0
2015-Jul-27 15:33N 30°29' W 086°29'0 0.0
2015-Jul-27 14:33N 30°29' W 086°29'0 0.0
2015-Jul-27 13:33N 30°29' W 086°29'0 0.0
2015-Jul-27 12:33N 30°29' W 086°29'0 0.0
2015-Jul-27 11:33N 30°29' W 086°29'0 0.0
2015-Jul-27 10:33N 30°29' W 086°29'0 0.0
2015-Jul-27 09:33N 30°29' W 086°29'0 0.0
2015-Jul-27 08:33N 30°29' W 086°29'0 0.0
2015-Jul-27 07:33N 30°29' W 086°29'0 0.0
2015-Jul-27 06:33N 30°29' W 086°29'0 0.0
2015-Jul-27 05:33N 30°29' W 086°29'0 0.0
2015-Jul-27 04:33N 30°29' W 086°29'0 0.0
2015-Jul-27 03:33N 30°29' W 086°29'0 0.0
2015-Jul-27 02:33N 30°29' W 086°29'0 0.0
2015-Jul-27 01:33N 30°29' W 086°29'0 0.0
2015-Jul-27 00:33N 30°29' W 086°29'0 0.0
2015-Jul-26 23:33N 30°29' W 086°29'0 0.0
2015-Jul-26 22:33N 30°29' W 086°29'0 0.0
2015-Jul-26 21:33N 30°29' W 086°29'0 0.0
2015-Jul-26 20:33N 30°29' W 086°29'0 0.0
2015-Jul-26 19:33N 30°29' W 086°29'0 0.0
2015-Jul-26 18:33N 30°29' W 086°29'0 0.0
2015-Jul-26 17:33N 30°29' W 086°29'0 0.0
2015-Jul-26 16:34N 30°29' W 086°29'0 0.0
2015-Jul-26 15:33N 30°29' W 086°29'0 0.0
2015-Jul-26 14:34N 30°29' W 086°29'0 0.0
2015-Jul-26 13:33N 30°29' W 086°29'0 0.0
2015-Jul-26 12:34N 30°29' W 086°29'0 0.0
2015-Jul-26 11:33N 30°29' W 086°29'0 0.0
2015-Jul-26 10:34N 30°29' W 086°29'0 0.0
2015-Jul-26 09:33N 30°29' W 086°29'0 0.0
2015-Jul-26 08:34N 30°29' W 086°29'0 0.0
2015-Jul-26 07:34N 30°29' W 086°29'0 0.0
2015-Jul-26 06:34N 30°29' W 086°29'0 0.0
2015-Jul-26 05:34N 30°29' W 086°29'0 0.0
2015-Jul-26 04:33N 30°29' W 086°29'0 0.0
2015-Jul-26 03:33N 30°29' W 086°29'0 0.0
2015-Jul-26 02:34N 30°29' W 086°29'0 0.0
2015-Jul-26 01:34N 30°29' W 086°29'0 0.0
2015-Jul-26 00:34N 30°29' W 086°29'0 0.0
2015-Jul-25 23:33N 30°29' W 086°29'0 0.0
2015-Jul-25 22:33N 30°29' W 086°29'0 0.0
2015-Jul-25 21:34N 30°29' W 086°29'0 0.0
2015-Jul-25 20:34N 30°29' W 086°29'0 0.0
2015-Jul-25 19:34N 30°29' W 086°29'0 0.0
2015-Jul-25 18:34N 30°29' W 086°29'0 0.0
2015-Jul-25 17:34N 30°29' W 086°29'0 0.0
2015-Jul-25 16:33N 30°29' W 086°29'0 0.0
2015-Jul-25 15:33N 30°29' W 086°29'0 0.0
2015-Jul-25 14:34N 30°29' W 086°29'0 0.0
2015-Jul-25 13:33N 30°29' W 086°29'0 0.0
2015-Jul-25 12:34N 30°29' W 086°29'0 0.0
2015-Jul-25 11:33N 30°29' W 086°29'0 0.0
2015-Jul-25 10:33N 30°29' W 086°29'0 0.0
2015-Jul-25 09:34N 30°29' W 086°29'0 0.0
2015-Jul-25 08:33N 30°29' W 086°29'0 0.2
2015-Jul-25 07:34N 30°29' W 086°29'3 3.1
2015-Jul-25 06:34N 30°27' W 086°27'6 6.1
2015-Jul-25 05:34N 30°26' W 086°20'6 5.9
2015-Jul-25 04:33N 30°25' W 086°13'1 0.0
2015-Jul-23 12:33N 30°26' W 086°14'6 6.1
2015-Jul-23 11:34N 30°26' W 086°21'6 6.4
2015-Jul-23 10:34N 30°26' W 086°28'6 6.2
2015-Jul-23 09:34N 30°24' W 086°35'8 5.0
2015-Jul-23 08:03N 30°24' W 086°44'3 5.9
2015-Jul-23 07:33N 30°24' W 086°47'6 5.9
2015-Jul-23 06:33N 30°24' W 086°54'  

Dump ship's entire track history